createdAt,value
2023-04-13T00:02:13.761Z,-10973.00
2023-04-13T00:05:19.974Z,-10969.34
2023-04-13T00:08:26.343Z,-10971.03
2023-04-13T00:11:33.836Z,-10981.25
2023-04-13T00:14:40.254Z,-10965.69
2023-04-13T00:17:47.565Z,-10990.09
2023-04-13T00:20:53.850Z,-10975.22
2023-04-13T00:24:00.263Z,-10973.56
2023-04-13T00:27:08.830Z,-10997.94
2023-04-13T00:30:16.438Z,-10992.34
2023-04-13T00:33:22.714Z,-10994.84
2023-04-13T00:36:28.804Z,-10991.63
2023-04-13T00:39:35.201Z,-10992.47
2023-04-13T00:42:44.737Z,-10992.34
2023-04-13T00:45:51.268Z,-10992.91
2023-04-13T00:48:58.376Z,-10996.81
2023-04-13T00:52:05.057Z,-11000.19
2023-04-13T00:55:11.670Z,-10991.22
2023-04-13T00:58:19.363Z,-10995.41
2023-04-13T01:01:26.212Z,-10992.91
2023-04-13T01:04:33.641Z,-10979.56
2023-04-13T01:07:49.465Z,-10985.47
2023-04-13T01:11:01.850Z,-10978.31
2023-04-13T01:14:14.454Z,-10949.03
2023-04-13T01:17:22.907Z,-10942.16
2023-04-13T01:20:31.881Z,-10958.00
2023-04-13T01:23:51.375Z,-10956.87
2023-04-13T01:27:05.682Z,-10946.37
2023-04-13T01:30:16.963Z,-10969.06
2023-04-13T01:33:25.525Z,-10969.47
2023-04-13T01:36:33.791Z,-10971.44
2023-04-13T01:39:40.047Z,-10977.47
2023-04-13T01:42:47.407Z,-10974.66
2023-04-13T01:46:01.767Z,-10942.88
2023-04-13T01:49:11.102Z,-10945.66
2023-04-13T01:52:17.852Z,-10965.41
2023-04-13T01:55:24.825Z,-10977.06
2023-04-13T01:58:33.694Z,-10970.19
2023-04-13T02:01:43.246Z,-10964.16
2023-04-13T02:04:49.582Z,-10964.59
2023-04-13T02:07:55.850Z,-10971.59
2023-04-13T02:11:03.774Z,-10967.66
2023-04-13T02:14:09.763Z,-10951.81
2023-04-13T02:17:17.704Z,-10941.31
2023-04-13T02:20:23.871Z,-10948.31
2023-04-13T02:23:29.890Z,-10950.16
2023-04-13T02:26:37.352Z,-10960.25
2023-04-13T02:29:43.732Z,-10962.47
2023-04-13T02:32:51.379Z,-10944.97
2023-04-13T02:35:58.603Z,-10937.13
2023-04-13T02:39:05.066Z,-10934.75
2023-04-13T02:42:11.952Z,-10938.53
2023-04-13T02:45:18.473Z,-10937.81
2023-04-13T02:48:25.858Z,-10920.59
2023-04-13T02:51:32.382Z,-10944.97
2023-04-13T02:54:38.401Z,-10934.47
2023-04-13T02:57:44.906Z,-10916.25
2023-04-13T03:00:51.538Z,-10904.91
2023-04-13T03:03:59.371Z,-10918.34
2023-04-13T03:07:10.175Z,-10945.53
2023-04-13T03:10:16.540Z,-10933.19
2023-04-13T03:13:23.048Z,-10929.13
2023-04-13T03:16:29.252Z,-10937.69
2023-04-13T03:19:37.264Z,-10954.22
2023-04-13T03:22:45.281Z,-10949.44
2023-04-13T03:25:51.839Z,-10945.09
2023-04-13T03:28:58.193Z,-10953.66
2023-04-13T03:32:04.503Z,-10952.66
2023-04-13T03:35:12.099Z,-10955.75
2023-04-13T03:38:18.271Z,-10906.44
2023-04-13T03:41:24.446Z,-10913.03
2023-04-13T03:44:30.361Z,-10930.97
2023-04-13T03:47:36.323Z,-10906.16
2023-04-13T03:50:43.687Z,-10903.78
2023-04-13T03:53:49.652Z,-10910.22
2023-04-13T03:56:57.164Z,-10903.22
2023-04-13T04:00:03.894Z,-10910.09
2023-04-13T04:03:10.532Z,-10929.97
2023-04-13T04:06:18.032Z,-10929.84
2023-04-13T04:09:24.914Z,-10947.63
2023-04-13T04:12:31.387Z,-10944.97
2023-04-13T04:15:37.962Z,-10942.44
2023-04-13T04:18:44.603Z,-10953.38
2023-04-13T04:21:53.192Z,-10929.69
2023-04-13T04:25:00.247Z,-10940.91
2023-04-13T04:28:06.618Z,-10938.53
2023-04-13T04:31:13.244Z,-10950.44
2023-04-13T04:34:19.465Z,-10954.06
2023-04-13T04:37:27.147Z,-10948.31
2023-04-13T04:40:35.937Z,-10973.00
2023-04-13T04:43:46.414Z,-10953.09
2023-04-13T04:46:54.327Z,-10969.63
2023-04-13T04:50:01.934Z,-10976.34
2023-04-13T04:53:09.800Z,-10991.78
2023-04-13T04:56:16.094Z,-10986.16
2023-04-13T04:59:22.677Z,-10990.22
2023-04-13T05:02:29.240Z,-10973.97
2023-04-13T05:05:35.606Z,-10982.94
2023-04-13T05:08:44.849Z,-11018.97
2023-04-13T05:11:51.477Z,-11033.97
2023-04-13T05:14:58.005Z,-11020.66
2023-04-13T05:18:06.367Z,-11003.53
2023-04-13T05:21:12.867Z,-11005.22
2023-04-13T05:24:21.050Z,-11026.13
2023-04-13T05:27:27.786Z,-11035.53
2023-04-13T05:30:35.479Z,-11046.19
2023-04-13T05:33:41.850Z,-11060.22
2023-04-13T05:36:48.060Z,-11054.59
2023-04-13T05:39:55.754Z,-11071.44
2023-04-13T05:43:02.111Z,-11068.34
2023-04-13T05:46:08.701Z,-11052.34
2023-04-13T05:49:14.984Z,-11052.63
2023-04-13T05:52:22.208Z,-11081.97
2023-04-13T05:55:30.050Z,-11106.13
2023-04-13T05:58:36.471Z,-11112.88
2023-04-13T06:01:42.604Z,-11095.16
2023-04-13T06:04:48.926Z,-11125.66
2023-04-13T06:07:56.146Z,-11117.22
2023-04-13T06:11:03.606Z,-11103.59
2023-04-13T06:14:10.135Z,-11138.56
2023-04-13T06:17:16.165Z,-11116.66
2023-04-13T06:20:22.867Z,-11130.00
2023-04-13T06:23:29.318Z,-11119.88
2023-04-13T06:26:37.661Z,-11132.09
2023-04-13T06:29:44.234Z,-11153.75
2023-04-13T06:32:50.518Z,-11158.38
2023-04-13T06:35:57.622Z,-11138.84
2023-04-13T06:39:04.648Z,-11142.66
2023-04-13T06:42:12.340Z,-11155.56
2023-04-13T06:45:18.923Z,-11169.78
2023-04-13T06:48:25.760Z,-11162.59
2023-04-13T06:51:32.246Z,-11163.31
2023-04-13T06:54:38.418Z,-11182.28
2023-04-13T06:57:46.565Z,-11190.44
2023-04-13T07:00:52.836Z,-11199.28
2023-04-13T07:03:59.075Z,-11205.63
2023-04-13T07:07:05.495Z,-11208.28
2023-04-13T07:10:11.990Z,-11224.88
2023-04-13T07:13:19.618Z,-11226.72
2023-04-13T07:16:25.854Z,-11217.44
2023-04-13T07:19:33.350Z,-11236.44
2023-04-13T07:22:39.630Z,-11248.09
2023-04-13T07:25:46.023Z,-11249.50
2023-04-13T07:28:53.489Z,-11237.97
2023-04-13T07:32:03.865Z,-11264.56
2023-04-13T07:35:10.642Z,-11255.56
2023-04-13T07:38:17.028Z,-11267.94
2023-04-13T07:41:24.406Z,-11278.78
2023-04-13T07:44:32.044Z,-11289.34
2023-04-13T07:47:38.616Z,-11276.53
2023-04-13T07:50:45.206Z,-11286.50
2023-04-13T07:53:53.802Z,-11280.59
2023-04-13T07:56:59.964Z,-11331.56
2023-04-13T08:00:10.664Z,-11321.72
2023-04-13T08:03:17.386Z,-11346.50
2023-04-13T08:06:23.902Z,-11328.47
2023-04-13T08:09:33.120Z,-11349.75
2023-04-13T08:12:39.558Z,-11361.56
2023-04-13T08:15:47.341Z,-11334.53
2023-04-13T08:18:53.418Z,-11321.28
2023-04-13T08:21:59.712Z,-11348.75
2023-04-13T08:25:07.364Z,-11361.56
2023-04-13T08:28:13.889Z,-11361.16
2023-04-13T08:31:21.934Z,-11365.09
2023-04-13T08:34:28.169Z,-11362.56
2023-04-13T08:37:35.120Z,-11391.03
2023-04-13T08:40:42.068Z,-11402.00
2023-04-13T08:43:48.629Z,-11395.81
2023-04-13T08:46:56.756Z,-11389.03
2023-04-13T08:50:04.122Z,-11402.88
2023-04-13T08:53:10.284Z,-11393.13
2023-04-13T08:56:17.749Z,-11414.84
2023-04-13T08:59:25.086Z,-11424.72
2023-04-13T09:02:44.234Z,-11414.56
2023-04-13T09:06:06.222Z,-11429.94
2023-04-13T09:09:15.063Z,-11401.31
2023-04-13T09:12:21.513Z,-11425.13
2023-04-13T09:15:28.252Z,-11424.16
2023-04-13T09:18:35.877Z,-11416.09
2023-04-13T09:21:43.347Z,-11440.34
2023-04-13T09:24:49.943Z,-11461.78
2023-04-13T09:27:57.413Z,-11457.69
2023-04-13T09:31:05.719Z,-11431.34
2023-04-13T09:34:13.664Z,-11427.09
2023-04-13T09:37:19.800Z,-11464.47
2023-04-13T09:40:26.845Z,-11450.09
2023-04-13T09:43:37.684Z,-11449.53
2023-04-13T09:46:44.725Z,-11432.59
2023-04-13T09:49:53.105Z,-11493.38
2023-04-13T09:53:03.050Z,-11479.56
2023-04-13T09:56:09.452Z,-11467.44
2023-04-13T09:59:16.106Z,-11461.38
2023-04-13T10:02:23.979Z,-11463.34
2023-04-13T10:05:41.428Z,-11458.97
2023-04-13T10:08:57.045Z,-11490.28
2023-04-13T10:12:04.497Z,-11502.97
2023-04-13T10:15:26.189Z,-11493.53
2023-04-13T10:18:42.603Z,-11477.03
2023-04-13T10:21:51.956Z,-11483.22
2023-04-13T10:24:57.974Z,-11463.34
2023-04-13T10:28:04.497Z,-11493.38
2023-04-13T10:31:11.792Z,-11532.31
2023-04-13T10:34:25.818Z,-11468.00
2023-04-13T10:37:33.796Z,-11529.91
2023-04-13T10:40:44.630Z,-11548.25
2023-04-13T10:44:02.161Z,-11544.44
2023-04-13T10:47:08.465Z,-11530.47
2023-04-13T10:50:19.154Z,-11528.50
2023-04-13T10:53:30.463Z,-11517.06
2023-04-13T10:56:36.981Z,-11542.34
2023-04-13T11:02:57.476Z,-11546.44
2023-04-13T11:06:03.792Z,-11529.91
2023-04-13T11:09:15.197Z,-11532.88
2023-04-13T11:12:23.230Z,-11555.31
2023-04-13T11:15:30.630Z,-11507.22
2023-04-13T11:18:37.089Z,-11492.25
2023-04-13T11:21:45.069Z,-11543.31
2023-04-13T11:24:52.982Z,-11565.34
2023-04-13T11:28:00.366Z,-11544.72
2023-04-13T11:31:07.636Z,-11553.47
2023-04-13T11:34:14.160Z,-11577.75
2023-04-13T11:37:20.770Z,-11575.22
2023-04-13T11:40:29.217Z,-11547.84
2023-04-13T11:43:35.490Z,-11507.22
2023-04-13T11:46:42.071Z,-11535.28
2023-04-13T11:49:48.708Z,-11535.56
2023-04-13T11:52:57.647Z,-11575.78
2023-04-13T11:56:05.743Z,-11563.91
2023-04-13T11:59:12.339Z,-11554.06
2023-04-13T12:05:34.706Z,-11602.31
2023-04-13T12:08:41.719Z,-11576.91
2023-04-13T12:12:11.982Z,-11570.41
2023-04-13T12:15:42.795Z,-11565.34
2023-04-13T12:18:52.358Z,-11551.50
2023-04-13T12:22:00.411Z,-11550.66
2023-04-13T12:25:17.159Z,-11552.91
2023-04-13T12:28:30.732Z,-11557.72
2023-04-13T12:31:40.215Z,-11563.34
2023-04-13T12:34:47.376Z,-11541.91
2023-04-13T12:37:53.733Z,-11588.91
2023-04-13T12:41:01.138Z,-11594.84
2023-04-13T12:44:10.518Z,-11591.44
2023-04-13T12:47:17.196Z,-11578.47
2023-04-13T12:50:23.739Z,-11581.44
2023-04-13T12:53:30.604Z,-11585.38
2023-04-13T12:56:36.995Z,-11580.56
2023-04-13T12:59:44.753Z,-11598.38
2023-04-13T13:02:59.482Z,-11589.06
2023-04-13T13:06:12.981Z,-11568.31
2023-04-13T13:09:19.183Z,-11550.53
2023-04-13T13:12:29.987Z,-11562.50
2023-04-13T13:15:37.872Z,-11600.63
2023-04-13T13:18:50.491Z,-11618.69
2023-04-13T13:22:07.086Z,-11593.84
2023-04-13T13:25:15.241Z,-11606.00
2023-04-13T13:28:21.603Z,-11610.09
2023-04-13T13:31:29.543Z,-11618.97
2023-04-13T13:34:36.024Z,-11625.59
2023-04-13T13:37:42.197Z,-11583.25
2023-04-13T13:40:49.157Z,-11589.06
2023-04-13T13:43:55.231Z,-11598.94
2023-04-13T13:47:02.649Z,-11606.00
2023-04-13T13:50:09.969Z,-11569.00
2023-04-13T13:53:16.381Z,-11585.53
2023-04-13T13:56:22.490Z,-11596.09
2023-04-13T13:59:28.677Z,-11592.56
2023-04-13T14:02:37.198Z,-11556.72
2023-04-13T14:05:44.425Z,-11607.69
2023-04-13T14:08:50.934Z,-11599.78
2023-04-13T14:11:57.992Z,-11613.75
2023-04-13T14:15:05.239Z,-11599.78
2023-04-13T14:18:13.282Z,-11604.44
2023-04-13T14:21:21.680Z,-11600.34
2023-04-13T14:24:28.495Z,-11591.03
2023-04-13T14:27:34.776Z,-11616.44
2023-04-13T14:30:41.264Z,-11596.53
2023-04-13T14:33:49.052Z,-11634.50
2023-04-13T14:36:55.786Z,-11671.66
2023-04-13T14:40:02.111Z,-11733.37
2023-04-13T14:43:09.081Z,-11640.72
2023-04-13T14:46:15.772Z,-11556.31
2023-04-13T14:49:23.618Z,-11576.06
2023-04-13T14:52:29.951Z,-11586.38
2023-04-13T14:55:36.437Z,-11589.91
2023-04-13T14:58:42.685Z,-11585.94
2023-04-13T15:01:50.253Z,-11577.34
2023-04-13T15:04:59.101Z,-11525.84
2023-04-13T15:08:07.362Z,-11523.56
2023-04-13T15:11:13.592Z,-11511.00
2023-04-13T15:14:19.770Z,-11500.00
2023-04-13T15:17:26.622Z,-11500.28
2023-04-13T15:20:34.536Z,-11500.28
2023-04-13T15:23:40.722Z,-11500.72
2023-04-13T15:26:46.897Z,-11483.94
2023-04-13T15:29:59.219Z,-11484.06
2023-04-13T15:33:05.895Z,-11476.47
2023-04-13T15:36:16.840Z,-11479.84
2023-04-13T15:39:23.189Z,-11486.59
2023-04-13T15:42:29.864Z,-11487.59
2023-04-13T15:45:36.614Z,-11494.50
2023-04-13T15:48:42.685Z,-11482.66
2023-04-13T15:51:52.914Z,-11476.47
2023-04-13T15:54:59.369Z,-11467.44
2023-04-13T15:58:06.379Z,-11462.22
2023-04-13T16:01:13.244Z,-11473.91
2023-04-13T16:04:19.948Z,-11471.81
2023-04-13T16:07:28.137Z,-11471.66
2023-04-13T16:10:34.770Z,-11458.41
2023-04-13T16:13:49.501Z,-11454.47
2023-04-13T16:17:00.226Z,-11456.00
2023-04-13T16:20:17.815Z,-11461.09
2023-04-13T16:23:25.710Z,-11450.78
2023-04-13T16:26:32.643Z,-11448.25
2023-04-13T16:29:41.578Z,-11444.88
2023-04-13T16:32:48.423Z,-11437.97
2023-04-13T16:35:54.672Z,-11428.81
2023-04-13T16:39:07.978Z,-11412.31
2023-04-13T16:42:16.939Z,-11401.88
2023-04-13T16:45:24.610Z,-11412.72
2023-04-13T16:48:30.810Z,-11397.09
2023-04-13T16:51:37.331Z,-11391.44
2023-04-13T16:54:46.453Z,-11384.53
2023-04-13T16:57:52.648Z,-11373.84
2023-04-13T17:00:59.083Z,-11377.22
2023-04-13T17:04:05.537Z,-11370.72
2023-04-13T17:07:12.300Z,-11366.66
2023-04-13T17:10:20.214Z,-11366.66
2023-04-13T17:13:26.846Z,-11364.53
2023-04-13T17:16:33.293Z,-11349.19
2023-04-13T17:19:39.581Z,-11347.78
2023-04-13T17:22:46.211Z,-11354.09
2023-04-13T17:25:56.698Z,-11343.25
2023-04-13T17:29:03.043Z,-11329.75
2023-04-13T17:32:09.716Z,-11327.50
2023-04-13T17:35:16.340Z,-11329.31
2023-04-13T17:38:22.871Z,-11336.09
2023-04-13T17:41:30.828Z,-11331.16
2023-04-13T17:44:38.059Z,-11322.41
2023-04-13T17:47:44.392Z,-11316.38
2023-04-13T17:50:51.749Z,-11314.25
2023-04-13T17:53:58.280Z,-11310.31
2023-04-13T17:57:07.542Z,-11306.66
2023-04-13T18:00:15.404Z,-11305.38
2023-04-13T18:03:21.737Z,-11304.41
2023-04-13T18:06:28.482Z,-11301.72
2023-04-13T18:09:34.926Z,-11292.16
2023-04-13T18:12:43.115Z,-11290.19
2023-04-13T18:15:50.515Z,-11286.78
2023-04-13T18:18:57.348Z,-11281.44
2023-04-13T18:22:03.797Z,-11296.38
2023-04-13T18:25:10.876Z,-11282.00
2023-04-13T18:28:18.806Z,-11271.59
2023-04-13T18:31:25.434Z,-11273.28
2023-04-13T18:34:32.202Z,-11287.50
2023-04-13T18:37:39.206Z,-11291.31
2023-04-13T18:40:46.009Z,-11289.19
2023-04-13T18:43:53.448Z,-11284.28
2023-04-13T18:47:00.039Z,-11275.81
2023-04-13T18:50:06.899Z,-11289.91
2023-04-13T18:53:13.465Z,-11289.19
2023-04-13T18:56:19.857Z,-11301.72
2023-04-13T18:59:28.310Z,-11293.13
2023-04-13T19:02:34.703Z,-11295.81
2023-04-13T19:05:41.302Z,-11287.22
2023-04-13T19:08:47.757Z,-11291.16
2023-04-13T19:12:01.276Z,-11293.00
2023-04-13T19:15:09.791Z,-11278.22
2023-04-13T19:18:16.168Z,-11277.22
2023-04-13T19:21:24.064Z,-11275.53
2023-04-13T19:24:30.419Z,-11275.53
2023-04-13T19:27:36.529Z,-11278.63
2023-04-13T19:30:44.101Z,-11286.38
2023-04-13T19:33:51.627Z,-11290.75
2023-04-13T19:36:58.134Z,-11285.97
2023-04-13T19:40:06.742Z,-11283.13
2023-04-13T19:43:13.116Z,-11282.00
2023-04-13T19:46:21.123Z,-11285.53
2023-04-13T19:49:27.608Z,-11286.09
2023-04-13T19:52:34.320Z,-11287.06
2023-04-13T19:55:41.218Z,-11294.13
2023-04-13T19:58:47.660Z,-11292.16
2023-04-13T20:01:55.412Z,-11287.34
2023-04-13T20:05:01.946Z,-11289.47
2023-04-13T20:08:08.380Z,-11283.69
2023-04-13T20:11:14.758Z,-11283.69
2023-04-13T20:14:21.259Z,-11284.56
2023-04-13T20:17:29.355Z,-11282.00
2023-04-13T20:20:38.608Z,-11271.19
2023-04-13T20:23:44.885Z,-11274.12
2023-04-13T20:26:51.655Z,-11277.78
2023-04-13T20:29:57.766Z,-11280.03
2023-04-13T20:33:07.066Z,-11271.75
2023-04-13T20:36:13.948Z,-11272.16
2023-04-13T20:39:25.505Z,-11277.50
2023-04-13T20:42:31.948Z,-11281.03
2023-04-13T20:45:38.400Z,-11273.28
2023-04-13T20:48:51.454Z,-11265.13
2023-04-13T20:52:02.176Z,-11261.19
2023-04-13T20:55:09.941Z,-11259.50
2023-04-13T20:58:17.268Z,-11258.94
2023-04-13T21:01:25.408Z,-11258.09
2023-04-13T21:04:33.456Z,-11262.59
2023-04-13T21:07:40.427Z,-11259.22
2023-04-13T21:10:47.033Z,-11267.94
2023-04-13T21:13:53.433Z,-11265.69
2023-04-13T21:16:59.626Z,-11259.63
2023-04-13T21:20:10.244Z,-11259.78
2023-04-13T21:23:16.437Z,-11265.00
2023-04-13T21:26:22.979Z,-11268.66
2023-04-13T21:29:29.072Z,-11266.81
2023-04-13T21:32:35.301Z,-11262.59
2023-04-13T21:35:43.051Z,-11264.72
2023-04-13T21:38:49.722Z,-11260.47
2023-04-13T21:41:56.073Z,-11264.56
2023-04-13T21:45:02.211Z,-11261.88
2023-04-13T21:48:08.870Z,-11250.34
2023-04-13T21:51:16.521Z,-11245.16
2023-04-13T21:54:22.927Z,-11244.03
2023-04-13T21:57:29.140Z,-11233.59
2023-04-13T22:00:35.405Z,-11227.84
2023-04-13T22:03:48.705Z,-11232.75
2023-04-13T22:06:57.126Z,-11232.34
2023-04-13T22:10:03.410Z,-11219.53
2023-04-13T22:13:09.612Z,-11226.56
2023-04-13T22:16:16.516Z,-11223.47
2023-04-13T22:19:22.735Z,-11220.81
2023-04-13T22:22:30.789Z,-11218.28
2023-04-13T22:25:37.026Z,-11212.50
2023-04-13T22:28:43.112Z,-11208.28
2023-04-13T22:31:49.747Z,-11211.25
2023-04-13T22:34:56.233Z,-11207.72
2023-04-13T22:38:04.887Z,-11214.91
2023-04-13T22:41:11.272Z,-11209.41
2023-04-13T22:44:17.666Z,-11203.38
2023-04-13T22:47:24.175Z,-11195.78
2023-04-13T22:50:30.611Z,-11200.00
2023-04-13T22:53:38.193Z,-11186.22
2023-04-13T22:56:44.532Z,-11195.34
2023-04-13T22:59:50.574Z,-11200.13
2023-04-13T23:02:57.287Z,-11205.34
2023-04-13T23:06:05.864Z,-11199.84
2023-04-13T23:09:13.404Z,-11192.97
2023-04-13T23:12:19.598Z,-11203.78
2023-04-13T23:15:26.234Z,-11198.16
2023-04-13T23:18:32.329Z,-11197.59
2023-04-13T23:21:38.459Z,-11195.78
2023-04-13T23:24:45.951Z,-11194.66
2023-04-13T23:27:52.299Z,-11192.81
2023-04-13T23:31:04.352Z,-11193.94
2023-04-13T23:34:10.933Z,-11192.69
2023-04-13T23:37:17.203Z,-11190.44
2023-04-13T23:40:24.821Z,-11180.59
2023-04-13T23:43:31.375Z,-11186.50
2023-04-13T23:46:38.757Z,-11185.38
2023-04-13T23:49:46.916Z,-11182.56
2023-04-13T23:52:54.676Z,-11178.63
2023-04-13T23:56:02.540Z,-11182.28
2023-04-13T23:59:08.868Z,-11179.31
